Time;durP1;ratioP1;P1;durP2;ratioP2;P2;SDS_P1;SDS_P2;PMS_P1;PMS_P2;Temp;Humidity;BMP_temperature;BMP_pressure;BME280_temperature;BME280_humidity;BME280_pressure;Samples;Min_cycle;Max_cycle;Signal;HPM_P1;HPM_P2
2021/12/25 00:00:53;;;;;;;4.80;2.50;;;;;;;-5.40;79.73;101193.81;5050708;28;20517;-76
2021/12/25 00:03:18;;;;;;;5.17;2.47;;;;;;;-5.42;79.41;101193.72;5050937;28;20428;-76
2021/12/25 00:05:47;;;;;;;6.33;3.33;;;;;;;-5.47;79.56;101199.03;5050906;28;20178;-76
2021/12/25 00:08:13;;;;;;;6.00;3.03;;;;;;;-5.50;79.63;101203.75;5050584;28;20272;-76
2021/12/25 00:10:38;;;;;;;4.27;2.67;;;;;;;-5.54;79.84;101207.59;5050814;28;20535;-76
2021/12/25 00:13:04;;;;;;;5.37;2.63;;;;;;;-5.61;81.37;101212.78;5049392;28;20601;-76
2021/12/25 00:15:29;;;;;;;6.17;2.37;;;;;;;-5.61;81.34;101217.75;5050801;28;20821;-76
2021/12/25 00:17:55;;;;;;;4.37;1.97;;;;;;;-5.65;80.82;101218.25;5049324;28;20194;-76
2021/12/25 00:20:20;;;;;;;3.47;1.83;;;;;;;-5.63;80.18;101221.75;5050465;28;20194;-76
2021/12/25 00:22:45;;;;;;;5.53;2.30;;;;;;;-5.70;80.27;101216.09;5049134;28;20220;-75
2021/12/25 00:25:11;;;;;;;4.93;2.57;;;;;;;-5.71;80.73;101219.31;5050570;28;20178;-75
2021/12/25 00:32:45;;;;;;;4.70;2.27;;;;;;;-5.82;80.41;101225.88;5049321;28;20431;-75
2021/12/25 00:35:11;;;;;;;4.63;1.90;;;;;;;-5.84;79.97;101239.81;5049342;28;20472;-76
2021/12/25 00:37:36;;;;;;;4.43;2.10;;;;;;;-5.84;79.62;101247.28;5049193;28;20460;-75
2021/12/25 00:40:04;;;;;;;4.60;1.80;;;;;;;-5.92;80.10;101243.25;5048039;28;20266;-76
2021/12/25 00:42:30;;;;;;;4.77;2.07;;;;;;;-5.93;80.00;101253.06;5049942;28;20261;-75
2021/12/25 00:44:56;;;;;;;5.90;2.53;;;;;;;-6.03;80.15;101250.50;5048873;28;20428;-76
2021/12/25 00:47:22;;;;;;;6.00;2.80;;;;;;;-6.04;80.81;101254.59;5048832;28;20484;-75
2021/12/25 00:49:48;;;;;;;4.50;2.13;;;;;;;-6.09;81.26;101253.31;5048412;28;20518;-76
2021/12/25 00:52:13;;;;;;;4.30;1.97;;;;;;;-6.08;81.98;101261.66;5032204;28;20193;-77
2021/12/25 00:54:39;;;;;;;3.57;2.20;;;;;;;-6.11;81.19;101262.28;5048774;28;20193;-76
2021/12/25 00:57:04;;;;;;;3.20;1.90;;;;;;;-6.12;81.39;101267.09;5048598;28;20608;-77
2021/12/25 00:59:29;;;;;;;4.63;2.47;;;;;;;-6.17;80.96;101270.81;5049783;28;20755;-76
2021/12/25 01:01:55;;;;;;;8.87;3.97;;;;;;;-6.18;81.19;101274.91;5048323;28;20226;-75
2021/12/25 01:04:21;;;;;;;13.63;6.80;;;;;;;-6.20;81.07;101276.38;5048496;28;20186;-76
2021/12/25 01:06:47;;;;;;;17.43;8.23;;;;;;;-6.25;81.08;101285.06;5048365;28;20194;-76
2021/12/25 01:09:13;;;;;;;16.53;7.50;;;;;;;-6.24;82.19;101290.88;5048126;28;20494;-76
2021/12/25 01:11:41;;;;;;;39.67;15.17;;;;;;;-6.27;81.95;101293.13;5048431;28;20346;-75
2021/12/25 01:14:34;;;;;;;37.37;15.33;;;;;;;-6.26;82.67;101297.34;5031693;28;20205;-76
2021/12/25 01:30:34;;;;;;;12.23;6.10;;;;;;;-6.41;81.72;101308.41;5047978;28;20460;-76
2021/12/25 01:39:21;;;;;;;9.77;5.80;;;;;;;-6.49;82.05;101304.31;5049543;28;20407;-77
2021/12/25 01:47:59;;;;;;;4.60;2.80;;;;;;;-6.56;82.13;101316.91;5048115;28;20436;-76
2021/12/25 01:50:28;;;;;;;5.00;2.73;;;;;;;-6.52;82.07;101323.94;5047994;28;21049;-75
2021/12/25 01:52:55;;;;;;;4.43;2.87;;;;;;;-6.58;82.20;101330.84;5051035;28;20276;-76
2021/12/25 01:55:24;;;;;;;4.40;2.50;;;;;;;-6.59;82.30;101334.06;5052159;28;20435;-76
2021/12/25 01:57:50;;;;;;;4.10;2.80;;;;;;;-6.61;82.36;101338.91;5051894;28;20480;-75
2021/12/25 02:00:25;;;;;;;5.00;2.07;;;;;;;-6.63;82.71;101337.88;5051801;28;20455;-76
2021/12/25 02:02:51;;;;;;;4.20;2.00;;;;;;;-6.68;82.35;101339.03;5053510;28;20607;-76
2021/12/25 02:05:17;;;;;;;3.83;2.30;;;;;;;-6.70;82.41;101342.13;5051914;28;20503;-76
2021/12/25 02:07:43;;;;;;;7.13;3.03;;;;;;;-6.68;83.23;101341.53;5053152;28;20200;-76
2021/12/25 02:10:11;;;;;;;5.07;2.37;;;;;;;-6.70;83.99;101348.00;5051511;28;20882;-76
2021/12/25 02:12:37;;;;;;;4.33;2.17;;;;;;;-6.65;84.75;101349.31;5051744;28;20440;-76
2021/12/25 02:15:09;;;;;;;7.47;2.40;;;;;;;-6.64;85.14;101348.56;5051615;28;20523;-76
2021/12/25 02:20:28;;;;;;;2.70;1.90;;;;;;;-6.74;83.93;101353.41;5051474;28;20459;-75
2021/12/25 02:23:00;;;;;;;3.07;1.97;;;;;;;-6.73;82.91;101360.13;5051540;28;20860;-76
2021/12/25 02:25:26;;;;;;;4.23;2.23;;;;;;;-6.76;83.36;101361.47;5051484;28;20454;-75
2021/12/25 02:27:52;;;;;;;6.00;2.07;;;;;;;-6.76;83.30;101358.97;5051419;28;20440;-75
2021/12/25 02:30:17;;;;;;;4.87;2.10;;;;;;;-6.79;83.46;101363.66;5051278;28;20525;-75
2021/12/25 02:32:45;;;;;;;3.47;2.10;;;;;;;-6.83;83.82;101361.59;5051259;28;20189;-75
2021/12/25 02:35:12;;;;;;;5.47;2.30;;;;;;;-6.84;83.52;101359.84;5051175;28;20428;-75
2021/12/25 02:37:39;;;;;;;5.93;2.23;;;;;;;-6.85;83.23;101359.00;5051139;28;20439;-75
2021/12/25 02:40:07;;;;;;;3.63;2.37;;;;;;;-6.87;83.35;101372.03;5050976;28;20444;-75
2021/12/25 02:42:34;;;;;;;3.67;1.73;;;;;;;-6.86;83.89;101366.31;5034297;28;20496;-75
2021/12/25 02:45:00;;;;;;;2.37;1.70;;;;;;;-6.91;83.87;101370.84;5052442;28;20432;-76
2021/12/25 02:47:29;;;;;;;5.03;2.27;;;;;;;-6.92;84.52;101375.66;5051117;28;20442;-74
2021/12/25 02:49:54;;;;;;;3.50;1.80;;;;;;;-6.96;84.87;101369.53;5034012;28;20303;-76
2021/12/25 02:52:20;;;;;;;3.97;1.97;;;;;;;-6.95;84.41;101377.88;5051086;28;20552;-76
2021/12/25 02:54:45;;;;;;;3.33;2.00;;;;;;;-6.97;83.70;101366.88;5052492;28;20216;-74
2021/12/25 02:57:12;;;;;;;2.80;2.07;;;;;;;-6.97;83.58;101367.78;5051144;28;20220;-75
2021/12/25 02:59:37;;;;;;;5.23;1.80;;;;;;;-7.03;83.44;101372.16;5050761;28;20201;-75
2021/12/25 03:02:08;;;;;;;4.70;2.23;;;;;;;-7.03;84.08;101376.25;5051001;28;20526;-75
2021/12/25 03:04:36;;;;;;;3.53;1.63;;;;;;;-7.05;84.02;101370.28;5049858;28;20922;-75
2021/12/25 03:07:02;;;;;;;2.67;1.57;;;;;;;-7.05;83.63;101375.25;5050925;28;20441;-75
2021/12/25 03:09:27;;;;;;;1.80;1.30;;;;;;;-7.09;83.30;101370.69;5050629;28;20455;-75
2021/12/25 03:11:53;;;;;;;4.57;1.80;;;;;;;-7.10;84.13;101383.88;5053893;28;20215;-75
2021/12/25 03:14:33;;;;;;;2.57;1.60;;;;;;;-7.11;83.67;101385.47;5056291;28;20186;-73
2021/12/25 03:16:59;;;;;;;3.57;1.60;;;;;;;-7.19;83.89;101386.34;5039854;28;20201;-75
2021/12/25 03:19:31;;;;;;;3.07;1.80;;;;;;;-7.16;83.76;101388.22;5037044;28;20534;-73
2021/12/25 03:21:57;;;;;;;4.30;1.50;;;;;;;-7.21;83.77;101395.28;5052710;28;20224;-73
2021/12/25 03:24:24;;;;;;;3.27;1.70;;;;;;;-7.20;84.33;101393.63;5037376;28;20439;-73
2021/12/25 03:26:52;;;;;;;3.43;1.70;;;;;;;-7.20;84.25;101399.50;5056449;28;21238;-73
2021/12/25 03:29:18;;;;;;;4.83;1.90;;;;;;;-7.27;84.42;101402.09;5056166;28;20520;-73
2021/12/25 03:31:45;;;;;;;3.13;1.80;;;;;;;-7.26;84.55;101395.53;5056334;28;20907;-73
2021/12/25 03:34:10;;;;;;;3.30;1.70;;;;;;;-7.29;84.96;101395.22;5038812;28;20192;-73
2021/12/25 03:36:36;;;;;;;4.13;2.17;;;;;;;-7.28;84.65;101402.00;5036659;28;20442;-73
2021/12/25 03:39:03;;;;;;;3.73;2.10;;;;;;;-7.28;84.45;101395.38;5053151;28;20271;-73
2021/12/25 03:41:28;;;;;;;4.77;1.87;;;;;;;-7.27;84.21;101406.22;5052626;28;20695;-73
2021/12/25 03:43:54;;;;;;;3.20;1.70;;;;;;;-7.28;83.75;101407.81;5054156;28;20440;-73
2021/12/25 03:46:19;;;;;;;3.70;1.60;;;;;;;-7.31;83.27;101401.69;5053986;28;20210;-73
2021/12/25 03:49:02;;;;;;;3.50;2.03;;;;;;;-7.34;82.93;101401.38;5036322;28;20563;-73
2021/12/25 03:59:41;;;;;;;3.07;1.97;;;;;;;-7.38;82.72;101415.13;5053543;28;20941;-73
2021/12/25 04:02:17;;;;;;;3.53;1.80;;;;;;;-7.40;82.31;101419.06;5037170;28;20616;-73
2021/12/25 04:04:46;;;;;;;4.30;1.90;;;;;;;-7.43;82.89;101418.75;5053660;28;20450;-73
2021/12/25 04:07:45;;;;;;;4.40;1.80;;;;;;;-7.43;84.14;101418.75;5053232;28;20431;-73
2021/12/25 04:10:01;;;;;;;2.13;1.40;;;;;;;-7.44;83.87;101417.00;5052236;28;20459;-73
2021/12/25 04:12:26;;;;;;;2.20;1.70;;;;;;;-7.43;83.91;101418.75;5037077;28;20436;-73
2021/12/25 04:14:52;;;;;;;4.83;1.77;;;;;;;-7.46;84.07;101413.47;5037563;28;20444;-73
2021/12/25 04:17:17;;;;;;;4.30;1.70;;;;;;;-7.49;83.83;101418.16;5054113;28;20182;-73
2021/12/25 04:19:42;;;;;;;4.70;1.70;;;;;;;-7.53;84.51;101425.16;5054124;28;20186;-73
2021/12/25 04:22:15;;;;;;;6.40;1.70;;;;;;;-7.53;85.00;101420.19;5054151;28;20209;-73
2021/12/25 04:24:43;;;;;;;3.77;1.87;;;;;;;-7.53;84.62;101416.09;5054231;28;20674;-73
2021/12/25 04:27:12;;;;;;;5.80;1.90;;;;;;;-7.58;84.86;101418.84;5054068;28;20793;-73
2021/12/25 04:29:46;;;;;;;4.30;2.07;;;;;;;-7.60;84.90;101423.66;5053854;28;20443;-74
2021/12/25 05:05:23;;;;;;;4.23;1.70;;;;;;;-7.65;84.82;101434.75;5055832;28;21033;-73
2021/12/25 05:08:01;;;;;;;4.40;1.53;;;;;;;-7.67;84.53;101445.28;5046448;28;20905;-73
2021/12/25 05:10:27;;;;;;;2.63;1.60;;;;;;;-7.69;83.64;101442.63;5040031;28;20463;-75
2021/12/25 05:12:52;;;;;;;3.30;1.47;;;;;;;-7.74;84.00;101443.78;5054718;28;20626;-73
2021/12/25 05:15:18;;;;;;;2.10;1.13;;;;;;;-7.73;83.55;101440.59;5053382;28;20192;-73
2021/12/25 05:17:43;;;;;;;2.80;1.60;;;;;;;-7.75;83.27;101437.06;5037831;28;20228;-75
2021/12/25 05:20:09;;;;;;;3.70;1.60;;;;;;;-7.76;83.17;101436.91;5053067;28;20200;-73
2021/12/25 05:22:34;;;;;;;3.70;1.70;;;;;;;-7.79;82.94;101442.44;5037727;28;20221;-73
2021/12/25 05:25:00;;;;;;;3.63;1.73;;;;;;;-7.80;83.16;101438.22;5053995;28;20258;-74
2021/12/25 05:27:26;;;;;;;2.87;1.53;;;;;;;-7.81;83.12;101438.94;5053466;28;20558;-74
2021/12/25 05:29:52;;;;;;;2.40;1.47;;;;;;;-7.81;82.98;101438.06;5053792;28;20473;-74
2021/12/25 05:32:30;;;;;;;6.47;1.73;;;;;;;-7.84;83.55;101441.13;5055615;28;20194;-74
2021/12/25 05:35:08;;;;;;;3.80;1.90;;;;;;;-7.85;83.06;101440.97;5051479;28;20443;-73
2021/12/25 05:37:57;;;;;;;6.40;2.00;;;;;;;-7.89;83.25;101434.81;5051289;28;20947;-72
2021/12/25 05:40:43;;;;;;;3.77;1.97;;;;;;;-7.88;83.72;101441.53;5052164;28;20516;-73
2021/12/25 05:43:09;;;;;;;3.00;1.80;;;;;;;-7.88;84.27;101441.53;5051957;28;20491;-75
2021/12/25 05:45:34;;;;;;;6.03;2.10;;;;;;;-7.87;84.21;101439.94;5052107;28;20935;-75
2021/12/25 05:48:08;;;;;;;3.80;2.13;;;;;;;-7.88;83.81;101439.06;5051046;28;20211;-74
2021/12/25 05:50:59;;;;;;;3.97;1.93;;;;;;;-7.89;83.28;101442.25;5017052;28;20456;-75
2021/12/25 05:53:37;;;;;;;3.67;1.87;;;;;;;-7.93;83.33;101446.78;5046330;28;20427;-75
2021/12/25 05:56:23;;;;;;;6.03;1.97;;;;;;;-7.97;82.91;101455.50;5021810;28;20462;-75
2021/12/25 05:58:58;;;;;;;5.20;2.23;;;;;;;-7.96;83.31;101452.31;5060482;28;20540;-75
2021/12/25 06:01:54;;;;;;;3.60;1.70;;;;;;;-7.95;83.70;101450.69;5057951;28;20482;-75
2021/12/25 06:04:22;;;;;;;5.00;2.50;;;;;;;-7.83;85.86;101454.44;5052793;28;20439;-75
2021/12/25 06:06:47;;;;;;;3.00;1.90;;;;;;;-7.87;85.50;101458.19;5052451;28;20449;-75
2021/12/25 06:09:13;;;;;;;3.03;1.97;;;;;;;-7.92;84.97;101459.34;5073403;28;20223;-75
2021/12/25 06:11:38;;;;;;;3.70;1.97;;;;;;;-7.98;83.86;101467.75;5073844;28;20222;-74
2021/12/25 06:14:10;;;;;;;4.80;2.07;;;;;;;-8.01;83.90;101463.38;5088263;28;20181;-75
2021/12/25 06:16:45;;;;;;;5.57;2.10;;;;;;;-8.03;83.33;101464.84;5059687;28;20418;-74
2021/12/25 06:19:28;;;;;;;3.83;2.27;;;;;;;-8.03;83.40;101463.94;5070105;28;20519;-74
2021/12/25 06:22:13;;;;;;;3.90;2.00;;;;;;;-8.06;83.15;101462.03;5065920;28;20502;-74
2021/12/25 06:25:09;;;;;;;5.00;2.17;;;;;;;-8.10;83.13;101467.44;5017645;28;20430;-75
2021/12/25 06:27:50;;;;;;;3.33;1.97;;;;;;;-8.13;82.99;101459.66;5056497;28;20426;-73
2021/12/25 06:30:54;;;;;;;4.13;1.60;;;;;;;-8.14;83.37;101462.00;5012532;28;20538;-73
2021/12/25 06:33:34;;;;;;;3.00;1.50;;;;;;;-8.18;83.11;101457.44;5012344;28;20562;-73
2021/12/25 06:36:11;;;;;;;6.07;2.20;;;;;;;-8.15;83.40;101461.09;5043676;28;20490;-75
2021/12/25 06:39:00;;;;;;;4.60;2.03;;;;;;;-8.15;83.63;101465.22;5075069;28;20433;-73
2021/12/25 06:41:34;;;;;;;4.57;2.10;;;;;;;-8.17;83.44;101470.00;5073436;28;20832;-73
2021/12/25 06:44:00;;;;;;;5.30;2.77;;;;;;;-8.18;83.87;101460.81;5068077;28;20436;-73
2021/12/25 06:46:39;;;;;;;6.23;2.87;;;;;;;-8.19;84.07;101471.47;5062466;28;20441;-73
2021/12/25 06:49:05;;;;;;;6.87;2.77;;;;;;;-8.19;83.63;101470.59;5083047;28;20812;-73
2021/12/25 06:51:53;;;;;;;5.97;2.50;;;;;;;-8.20;83.96;101477.13;5072732;28;20208;-73
2021/12/25 06:54:31;;;;;;;5.37;2.20;;;;;;;-8.17;84.20;101481.53;5076186;28;20454;-73
2021/12/25 06:57:17;;;;;;;4.43;2.83;;;;;;;-8.18;84.12;101488.13;5052722;28;20450;-73
2021/12/25 06:59:43;;;;;;;3.97;2.30;;;;;;;-8.17;84.14;101484.91;5088347;28;20450;-73
2021/12/25 07:02:10;;;;;;;3.77;2.30;;;;;;;-8.17;84.14;101476.56;5076415;28;20459;-73
2021/12/25 07:04:54;;;;;;;4.67;2.10;;;;;;;-8.20;84.01;101477.13;5076748;28;20183;-73
2021/12/25 07:07:43;;;;;;;3.77;2.00;;;;;;;-8.15;85.60;101488.41;5062205;28;20530;-73
2021/12/25 07:10:20;;;;;;;5.47;3.40;;;;;;;-8.12;85.97;101487.84;5077250;28;20496;-73
2021/12/25 07:12:54;;;;;;;5.47;2.83;;;;;;;-8.09;86.01;101498.09;5078391;28;20499;-73
2021/12/25 07:15:33;;;;;;;5.97;2.87;;;;;;;-8.08;86.21;101505.69;5078543;28;20454;-75
2021/12/25 07:18:08;;;;;;;3.67;2.60;;;;;;;-8.11;86.43;101499.56;5062882;28;20528;-75
2021/12/25 07:20:51;;;;;;;4.37;2.60;;;;;;;-8.14;85.02;101506.69;5075518;28;20461;-73
2021/12/25 07:23:40;;;;;;;5.13;2.43;;;;;;;-8.17;84.92;101511.31;5057785;28;20439;-73
2021/12/25 07:26:10;;;;;;;6.47;3.60;;;;;;;-8.19;84.41;101505.34;5075227;28;20436;-73
2021/12/25 07:28:42;;;;;;;7.70;4.27;;;;;;;-8.22;84.01;101495.13;5086669;28;20452;-73
2021/12/25 07:31:08;;;;;;;6.23;4.13;;;;;;;-8.23;84.14;101506.66;5058240;28;20462;-73
2021/12/25 07:33:36;;;;;;;7.87;5.03;;;;;;;-8.23;84.13;101513.22;5064293;28;20198;-73
2021/12/25 07:36:03;;;;;;;6.37;4.10;;;;;;;-8.19;84.27;101516.16;5077760;28;20197;-74
2021/12/25 07:38:28;;;;;;;6.63;3.97;;;;;;;-8.21;84.20;101529.16;5076711;28;20899;-73
2021/12/25 07:40:54;;;;;;;6.07;3.50;;;;;;;-8.21;84.34;101522.59;5062298;28;20467;-73
2021/12/25 07:43:19;;;;;;;5.70;3.87;;;;;;;-8.21;84.35;101522.59;5058616;28;20251;-73
2021/12/25 07:46:12;;;;;;;5.37;3.33;;;;;;;-8.22;84.30;101518.34;5057563;28;20161;-73
2021/12/25 07:48:37;;;;;;;5.40;3.13;;;;;;;-8.22;84.33;101522.41;5058095;28;20435;-73
2021/12/25 07:51:03;;;;;;;7.97;3.10;;;;;;;-8.22;84.74;101517.44;5057016;28;20466;-73
2021/12/25 07:53:32;;;;;;;4.93;3.37;;;;;;;-8.18;84.86;101520.38;5055697;28;20198;-73
2021/12/25 07:55:58;;;;;;;5.50;3.17;;;;;;;-8.16;84.71;101530.47;5057204;28;20192;-73
2021/12/25 07:58:24;;;;;;;9.73;4.73;;;;;;;-8.13;84.82;101525.81;5055589;28;20795;-71
2021/12/25 08:00:50;;;;;;;8.27;3.80;;;;;;;-8.11;84.93;101524.38;5057163;28;20218;-72
2021/12/25 08:03:16;;;;;;;8.70;4.03;;;;;;;-8.09;85.14;101518.84;5056587;28;20243;-73
2021/12/25 08:05:42;;;;;;;6.47;3.53;;;;;;;-8.08;85.49;101523.09;5058068;28;20440;-74
2021/12/25 08:08:08;;;;;;;6.30;3.50;;;;;;;-8.04;85.94;101545.03;5057485;28;20192;-73
2021/12/25 08:10:33;;;;;;;6.03;3.43;;;;;;;-8.03;85.42;101553.34;5055791;28;20460;-75
2021/12/25 08:12:59;;;;;;;7.60;3.50;;;;;;;-8.05;84.71;101552.31;5057599;28;20260;-75
2021/12/25 08:15:28;;;;;;;6.97;3.73;;;;;;;-8.04;84.64;101552.47;5057078;28;20188;-75
2021/12/25 08:17:55;;;;;;;5.07;3.90;;;;;;;-7.98;85.28;101553.09;5055169;28;20951;-75
2021/12/25 08:20:32;;;;;;;7.57;4.20;;;;;;;-7.86;85.87;101554.34;5059288;28;20463;-73
2021/12/25 08:23:17;;;;;;;8.50;4.70;;;;;;;-7.81;86.32;101553.22;5058943;28;20994;-75
2021/12/25 08:26:02;;;;;;;5.13;3.40;;;;;;;-7.75;86.40;101557.91;5053830;28;20941;-75
2021/12/25 08:28:53;;;;;;;9.47;4.80;;;;;;;-7.72;86.40;101568.16;5052654;28;20446;-75
2021/12/25 08:31:37;;;;;;;10.60;6.20;;;;;;;-7.74;85.59;101572.97;5052890;28;20451;-75
2021/12/25 08:34:26;;;;;;;21.47;11.90;;;;;;;-7.71;85.24;101563.34;5052432;28;20439;-75
2021/12/25 08:37:12;;;;;;;16.27;8.47;;;;;;;-7.69;85.68;101559.41;5053533;28;20443;-75
2021/12/25 08:39:38;;;;;;;8.67;5.13;;;;;;;-7.57;85.94;101552.31;5053749;28;20439;-74
2021/12/25 08:42:05;;;;;;;13.03;7.53;;;;;;;-7.48;86.54;101559.09;5054770;28;20477;-75
2021/12/25 08:44:40;;;;;;;17.97;10.43;;;;;;;-7.46;86.08;101564.22;5054517;28;20192;-74
2021/12/25 08:47:09;;;;;;;17.87;9.47;;;;;;;-7.41;85.92;101566.44;5053075;28;20532;-74
2021/12/25 08:49:36;;;;;;;14.60;8.07;;;;;;;-7.36;85.85;101571.88;5052959;28;20948;-74
2021/12/25 08:52:08;;;;;;;12.83;8.20;;;;;;;-7.32;85.94;101561.53;5054158;28;20439;-75
2021/12/25 08:54:35;;;;;;;15.07;7.20;;;;;;;-7.17;86.69;101563.94;5053950;28;20442;-74
2021/12/25 08:57:01;;;;;;;10.40;6.43;;;;;;;-6.99;88.26;101557.41;5052457;28;20513;-74
2021/12/25 08:59:27;;;;;;;6.93;4.67;;;;;;;-6.82;89.34;101562.44;5053144;28;20420;-75
2021/12/25 09:01:54;;;;;;;9.07;5.23;;;;;;;-6.86;89.27;101566.22;5052676;28;20980;-74
2021/12/25 09:04:20;;;;;;;7.70;4.63;;;;;;;-6.82;88.91;101574.88;5052690;28;20284;-75
2021/12/25 09:06:45;;;;;;;6.90;4.70;;;;;;;-6.81;88.86;101582.47;5054626;28;20472;-75
2021/12/25 09:09:11;;;;;;;10.07;4.40;;;;;;;-6.59;89.17;101585.47;5055213;28;20234;-74
2021/12/25 09:11:38;;;;;;;7.67;4.30;;;;;;;-6.55;89.66;101587.50;5053836;28;20198;-74
2021/12/25 09:14:04;;;;;;;8.83;4.00;;;;;;;-6.45;89.47;101588.56;5054775;28;20530;-74
2021/12/25 09:16:30;;;;;;;7.57;4.00;;;;;;;-6.24;90.10;101579.78;5054762;28;20441;-74
2021/12/25 09:18:55;;;;;;;7.07;3.63;;;;;;;-6.14;91.03;101580.81;5054991;28;20449;-74
2021/12/25 09:21:20;;;;;;;6.10;3.20;;;;;;;-6.13;90.82;101581.72;5054094;28;20251;-74
2021/12/25 09:23:46;;;;;;;8.87;4.30;;;;;;;-6.07;90.18;101575.72;5054359;28;20280;-74
2021/12/25 09:26:11;;;;;;;5.83;3.87;;;;;;;-6.02;89.78;101588.59;5055896;28;20181;-75
2021/12/25 09:28:37;;;;;;;8.03;4.83;;;;;;;-5.95;90.16;101596.78;5055975;28;20686;-75
2021/12/25 09:31:03;;;;;;;5.90;3.70;;;;;;;-5.89;89.65;101609.81;5056442;28;20571;-74
2021/12/25 09:33:30;;;;;;;6.00;3.83;;;;;;;-5.84;89.44;101610.28;5054742;28;20235;-74
2021/12/25 09:35:56;;;;;;;6.37;3.30;;;;;;;-5.84;89.27;101600.31;5056117;28;20451;-74
2021/12/25 09:38:21;;;;;;;15.13;8.07;;;;;;;-5.70;89.55;101593.38;5054272;28;20436;-74
2021/12/25 09:40:47;;;;;;;6.80;3.80;;;;;;;-5.54;89.31;101584.09;5055467;28;20463;-74
2021/12/25 09:43:13;;;;;;;8.47;3.70;;;;;;;-5.48;89.59;101599.63;5054777;28;20271;-74
2021/12/25 09:45:39;;;;;;;6.23;3.50;;;;;;;-5.37;89.67;101589.06;5055403;28;20280;-74
2021/12/25 09:48:05;;;;;;;7.10;3.90;;;;;;;-5.25;89.38;101589.31;5053907;28;20432;-75
2021/12/25 09:50:30;;;;;;;6.20;3.57;;;;;;;-5.07;89.48;101586.88;5056671;28;20452;-74
2021/12/25 09:52:55;;;;;;;8.67;4.10;;;;;;;-4.93;88.87;101596.50;5056343;28;20658;-74
2021/12/25 09:55:21;;;;;;;9.57;5.27;;;;;;;-4.72;88.19;101592.59;5055983;28;20182;-74
2021/12/25 09:57:46;;;;;;;11.23;5.93;;;;;;;-4.46;87.54;101588.34;5054246;28;20558;-74
2021/12/25 10:00:21;;;;;;;8.27;3.97;;;;;;;-4.25;86.62;101585.22;5055941;28;20292;-74
2021/12/25 10:02:51;;;;;;;8.33;4.07;;;;;;;-4.10;85.87;101592.47;5055963;28;20228;-74
2021/12/25 10:05:30;;;;;;;7.53;4.33;;;;;;;-3.65;84.34;101595.59;5054667;28;20428;-74
2021/12/25 10:08:21;;;;;;;6.83;4.27;;;;;;;-3.17;83.30;101607.34;5056598;28;20459;-74
2021/12/25 10:10:59;;;;;;;8.33;4.13;;;;;;;-2.87;81.58;101603.28;5055802;28;20448;-74
2021/12/25 10:13:36;;;;;;;5.93;3.93;;;;;;;-2.69;80.26;101579.75;5058614;28;20427;-75
2021/12/25 10:16:25;;;;;;;7.03;4.50;;;;;;;-2.70;79.34;101577.13;5059602;28;20207;-74
2021/12/25 10:18:53;;;;;;;8.53;4.53;;;;;;;-2.17;78.42;101580.75;5059645;28;20174;-75
2021/12/25 10:21:24;;;;;;;4.60;3.80;;;;;;;-1.88;76.96;101586.47;5059511;28;20209;-74
2021/12/25 10:24:17;;;;;;;5.50;3.77;;;;;;;-1.57;75.61;101580.63;5060363;28;20767;-74
2021/12/25 10:26:46;;;;;;;6.20;4.10;;;;;;;-1.19;74.75;101576.06;5059686;28;20228;-74
2021/12/25 10:29:21;;;;;;;5.23;3.73;;;;;;;-1.30;73.98;101581.88;5057971;28;20186;-74
2021/12/25 10:31:49;;;;;;;10.10;5.17;;;;;;;-1.29;73.08;101573.63;5059584;28;20247;-74
2021/12/25 10:34:18;;;;;;;6.10;3.33;;;;;;;0.82;68.54;101567.53;5059885;28;20170;-74
2021/12/25 10:36:44;;;;;;;4.00;2.93;;;;;;;3.01;57.65;101547.53;5059926;28;20560;-74
2021/12/25 10:39:14;;;;;;;5.50;2.80;;;;;;;3.97;54.27;101554.91;5057055;28;20272;-74
2021/12/25 10:41:50;;;;;;;4.37;3.00;;;;;;;4.12;53.97;101546.50;5059033;28;20225;-74
2021/12/25 10:44:23;;;;;;;9.13;3.90;;;;;;;2.48;59.01;101555.97;5057665;28;20193;-73
2021/12/25 10:46:57;;;;;;;5.37;3.57;;;;;;;2.30;60.19;101559.88;5058205;28;20662;-73
2021/12/25 10:49:28;;;;;;;3.90;2.93;;;;;;;2.27;60.67;101558.81;5056027;28;20289;-73
2021/12/25 10:51:55;;;;;;;5.33;3.10;;;;;;;2.09;58.86;101562.69;5056601;28;20267;-75
2021/12/25 10:54:37;;;;;;;5.10;3.10;;;;;;;2.00;60.75;101555.41;5055046;28;20174;-74
2021/12/25 10:57:02;;;;;;;4.63;2.10;;;;;;;2.61;58.85;101555.97;5061923;28;20192;-74
2021/12/25 10:59:42;;;;;;;3.20;2.27;;;;;;;3.32;57.06;101548.53;5044047;28;20226;-73
2021/12/25 11:02:07;;;;;;;4.93;2.77;;;;;;;3.37;56.49;101541.25;5053329;28;20221;-75
2021/12/25 11:04:36;;;;;;;6.80;2.70;;;;;;;3.36;55.43;101542.03;5055802;28;20194;-74
2021/12/25 11:07:16;;;;;;;4.47;2.47;;;;;;;3.67;55.62;101546.44;5057066;28;20198;-74
2021/12/25 11:10:08;;;;;;;3.07;2.30;;;;;;;6.42;49.84;101530.63;5055984;28;20224;-75
2021/12/25 11:12:35;;;;;;;3.67;2.30;;;;;;;6.29;47.55;101536.81;5054985;28;20236;-75
2021/12/25 11:15:22;;;;;;;5.53;2.30;;;;;;;7.43;45.01;101528.44;5054122;28;20239;-75
2021/12/25 11:17:52;;;;;;;3.87;2.30;;;;;;;7.71;43.05;101531.34;5046181;28;20186;-75
2021/12/25 11:20:31;;;;;;;4.33;2.30;;;;;;;7.45;44.21;101520.06;5055288;28;20201;-75
2021/12/25 11:22:58;;;;;;;5.33;2.30;;;;;;;7.30;43.67;101516.88;5055477;28;20334;-75
2021/12/25 11:25:27;;;;;;;2.50;2.10;;;;;;;7.77;42.92;101512.09;5057043;28;20182;-75
2021/12/25 11:27:54;;;;;;;6.63;2.50;;;;;;;8.21;42.52;101517.31;5057024;28;20284;-75
2021/12/25 11:30:23;;;;;;;3.23;2.30;;;;;;;8.15;43.17;101509.38;5056338;28;20206;-74
2021/12/25 11:32:50;;;;;;;3.43;2.23;;;;;;;8.56;42.00;101503.34;5059708;28;20215;-75
2021/12/25 11:35:18;;;;;;;3.40;2.20;;;;;;;8.29;41.88;101510.84;5074976;28;20201;-74
2021/12/25 11:37:44;;;;;;;3.37;2.33;;;;;;;8.27;42.99;101507.38;5057784;28;20193;-74
2021/12/25 11:40:11;;;;;;;3.93;2.10;;;;;;;7.93;43.62;101511.88;5058990;28;20209;-74
2021/12/25 11:42:48;;;;;;;3.97;2.27;;;;;;;8.65;42.50;101506.25;5057795;28;20425;-73
2021/12/25 11:45:20;;;;;;;5.13;2.33;;;;;;;8.24;41.67;101512.34;5058845;28;20177;-73
2021/12/25 11:47:57;;;;;;;6.67;2.37;;;;;;;8.27;42.09;101516.69;5058124;28;20193;-73
2021/12/25 11:50:45;;;;;;;4.23;2.00;;;;;;;8.04;42.86;101517.44;5057566;28;20304;-73
2021/12/25 11:53:39;;;;;;;3.10;1.90;;;;;;;7.94;41.88;101511.09;5059367;28;20277;-73
2021/12/25 11:58:48;;;;;;;4.37;2.20;;;;;;;9.38;40.29;101502.97;5054738;28;20198;-74
2021/12/25 12:01:17;;;;;;;5.30;2.03;;;;;;;8.85;40.22;101506.19;5059637;28;20225;-73
2021/12/25 12:03:46;;;;;;;3.93;1.77;;;;;;;8.77;40.45;101507.59;5060226;28;20258;-73
2021/12/25 12:06:13;;;;;;;4.97;1.90;;;;;;;8.49;40.67;101504.84;5060992;28;20228;-73
2021/12/25 12:08:54;;;;;;;5.40;3.23;;;;;;;8.94;41.14;101505.66;5060235;28;20251;-73
2021/12/25 12:11:41;;;;;;;4.33;3.77;;;;;;;10.32;39.00;101503.63;5061294;28;20220;-73
2021/12/25 12:14:27;;;;;;;3.77;3.40;;;;;;;10.59;38.64;101498.44;5062256;28;20190;-74
2021/12/25 12:17:21;;;;;;;5.93;4.07;;;;;;;9.70;40.02;101502.41;5042844;28;20198;-73
2021/12/25 12:19:52;;;;;;;5.43;4.07;;;;;;;9.81;40.11;101494.25;5065748;28;20186;-73
2021/12/25 12:25:11;;;;;;;4.33;3.83;;;;;;;9.98;37.55;101499.91;5057958;28;20194;-73
2021/12/25 12:27:36;;;;;;;5.10;4.60;;;;;;;10.42;38.20;101485.16;5058113;28;20201;-72
2021/12/25 12:30:07;;;;;;;4.47;4.03;;;;;;;10.13;37.54;101496.19;5052005;28;20216;-70
2021/12/25 12:32:43;;;;;;;8.40;5.17;;;;;;;11.90;35.67;101480.72;5050455;28;20499;-70
2021/12/25 12:35:28;;;;;;;4.37;1.70;;;;;;;13.60;31.49;101471.50;5055769;28;20224;-73
2021/12/25 12:37:54;;;;;;;3.63;2.03;;;;;;;12.75;33.56;101478.38;5056988;28;20231;-73
2021/12/25 12:40:27;;;;;;;4.03;1.93;;;;;;;9.83;38.11;101481.53;5055906;28;20217;-74
2021/12/25 12:42:58;;;;;;;5.30;2.00;;;;;;;8.21;41.52;101496.06;5056328;28;20770;-73
2021/12/25 12:45:33;;;;;;;4.80;2.00;;;;;;;6.86;45.53;101505.56;5057641;28;20208;-73
2021/12/25 12:48:25;;;;;;;3.10;2.00;;;;;;;6.13;48.00;101513.13;5040043;28;20247;-72
2021/12/25 12:50:53;;;;;;;5.80;2.30;;;;;;;5.07;50.15;101506.06;5054513;28;20708;-73
2021/12/25 12:53:21;;;;;;;4.17;2.27;;;;;;;4.62;51.33;101511.25;5057059;28;20182;-73
2021/12/25 12:55:49;;;;;;;4.77;1.90;;;;;;;3.93;51.74;101510.81;5057752;28;20547;-74
2021/12/25 12:58:18;;;;;;;4.23;1.73;;;;;;;4.40;52.95;101516.81;5058134;28;20181;-73
2021/12/25 13:00:55;;;;;;;6.07;2.20;;;;;;;4.86;52.10;101521.03;5041211;28;20309;-73
2021/12/25 13:03:22;;;;;;;3.03;2.17;;;;;;;4.53;52.20;101521.78;5057935;28;20271;-73
2021/12/25 13:05:54;;;;;;;3.27;2.10;;;;;;;4.47;53.04;101523.97;5057582;28;20197;-72